This is the latest recevied weather packets stored in our database for station/object W8AN. If no packets are shown the sender has not sent any weather packets the latest 1 day(s).
| Time | Temp. | Humidity | Pressure | Rain* | Wind** | Luminosity | Snow |
|---|---|---|---|---|---|---|---|
| 1778029872 | 8.89° C | 85% | 4263.6 hPa | 1.27 mm | - | 0 W/m² | - |
| 1778029572 | 8.89° C | 85% | 4263.7 hPa | 1.27 mm | - | 0 W/m² | - |
| 1778029268 | 8.89° C | 85% | 4263.6 hPa | 0 mm | - | 0 W/m² | - |
| 1778028661 | 8.89° C | 85% | 4263.4 hPa | 1.78 mm | - | 0 W/m² | - |
| 1778028055 | 8.89° C | 85% | 4263.5 hPa | 1.27 mm | - | 0 W/m² | - |
| 1778027448 | 8.89° C | 84% | 4263.3 hPa | 0 mm | - | 0 W/m² | - |
| 1778026840 | 8.89° C | 84% | 4263.4 hPa | 3.05 mm | - | 0 W/m² | - |
| 1778024720 | 8.89° C | 83% | 4263.3 hPa | 4.32 mm | - | 6 W/m² | - |
| 1778022299 | 9.44° C | 82% | 4263.2 hPa | 0 mm | - | 12 W/m² | - |
| 1778021995 | 9.44° C | 82% | 4263.2 hPa | 0 mm | - | 18 W/m² | - |
| 1778018357 | 9.44° C | 83% | 4262.9 hPa | 1.78 mm | - | 44 W/m² | - |
| 1778017450 | 9.44° C | 83% | 4262.7 hPa | 3.05 mm | - | 67 W/m² | - |
| 1778016238 | 9.44° C | 83% | 4262.7 hPa | 1.27 mm | - | 53 W/m² | - |
| 1778015328 | 9.44° C | 83% | 4262.8 hPa | 1.78 mm | - | 68 W/m² | - |
| 1778013208 | 10.56° C | 82% | 4262.8 hPa | 3.05 mm | - | 57 W/m² | - |
| 1778011995 | 10.56° C | 82% | 4262.8 hPa | 1.78 mm | - | 82 W/m² | - |
| 1778011085 | 10.56° C | 82% | 4263.2 hPa | 1.27 mm | - | 82 W/m² | - |
| 1778010480 | 11.11° C | 83% | 4262.8 hPa | 0 mm | - | 132 W/m² | - |
| 1778010177 | 11.11° C | 82% | 4263 hPa | 0 mm | - | 113 W/m² | - |
| 1778009575 | 11.11° C | 83% | 4263.4 hPa | 1.78 mm | - | 118 W/m² | - |
| 1778009273 | 11.11° C | 83% | 4263.2 hPa | 0 mm | - | 143 W/m² | - |
| 1778008668 | 11.11° C | 83% | 4263.4 hPa | 1.78 mm | - | 113 W/m² | - |
| 1778008367 | 10.56° C | 82% | 4263.1 hPa | 1.78 mm | - | 129 W/m² | - |
| 1778005939 | 11.11° C | 82% | 4263.2 hPa | 3.05 mm | - | 72 W/m² | - |
| 1778005028 | 11.67° C | 80% | 4263 hPa | 3.05 mm | - | 69 W/m² | - |
* Rain latest hour (hover to see other rain measurements)
** Current wind speed in m/s (hover to see current wind gust speed)